createdAt,value
2018-01-17T00:01:01.719Z,8.77
2018-01-17T00:03:30.380Z,7.93
2018-01-17T00:05:58.326Z,5.15
2018-01-17T00:08:26.581Z,5.55
2018-01-17T00:10:54.523Z,5.20
2018-01-17T00:13:23.245Z,8.20
2018-01-17T00:15:51.190Z,11.90
2018-01-17T00:18:19.086Z,7.85
2018-01-17T00:20:47.130Z,4.22
2018-01-17T00:23:15.785Z,5.72
2018-01-17T00:25:43.744Z,7.82
2018-01-17T00:28:11.931Z,8.43
2018-01-17T00:30:39.876Z,5.53
2018-01-17T00:33:07.755Z,6.47
2018-01-17T00:35:35.711Z,4.53
2018-01-17T00:38:03.640Z,4.90
2018-01-17T00:40:31.546Z,4.72
2018-01-17T00:42:59.822Z,4.70
2018-01-17T00:45:27.728Z,8.77
2018-01-17T00:47:55.676Z,3.62
2018-01-17T00:50:23.552Z,5.30
2018-01-17T00:52:51.483Z,3.75
2018-01-17T00:55:19.363Z,7.37
2018-01-17T00:57:47.324Z,5.50
2018-01-17T01:00:15.229Z,9.50
2018-01-17T01:02:43.218Z,2.50
2018-01-17T01:05:11.127Z,5.60
2018-01-17T01:07:39.098Z,3.70
2018-01-17T01:10:07.033Z,5.03
2018-01-17T01:12:35.823Z,3.92
2018-01-17T01:15:03.742Z,9.85
2018-01-17T01:17:35.628Z,6.20
2018-01-17T01:20:03.558Z,2.97
2018-01-17T01:22:31.503Z,4.57
2018-01-17T01:24:59.404Z,4.40
2018-01-17T01:27:27.356Z,2.42
2018-01-17T01:29:55.310Z,4.32
2018-01-17T01:32:23.995Z,4.25
2018-01-17T01:34:52.719Z,5.40
2018-01-17T01:37:20.668Z,4.70
2018-01-17T01:39:48.632Z,8.85
2018-01-17T01:42:17.435Z,9.43
2018-01-17T01:44:45.999Z,4.60
2018-01-17T01:47:20.435Z,3.45
2018-01-17T01:49:48.375Z,3.30
2018-01-17T01:52:17.064Z,4.10
2018-01-17T01:54:45.030Z,5.00
2018-01-17T01:57:13.713Z,4.60
2018-01-17T01:59:41.765Z,1.58
2018-01-17T02:02:09.679Z,3.70
2018-01-17T02:04:37.657Z,3.10
2018-01-17T02:07:05.562Z,2.37
2018-01-17T02:09:33.735Z,1.27
2018-01-17T02:12:01.819Z,3.08
2018-01-17T02:14:31.882Z,1.70
2018-01-17T02:17:00.711Z,1.45
2018-01-17T02:19:28.732Z,1.92
2018-01-17T02:21:57.418Z,1.50
2018-01-17T02:24:26.216Z,0.70
2018-01-17T02:26:54.151Z,1.60
2018-01-17T02:29:22.087Z,1.15
2018-01-17T02:31:50.004Z,0.52
2018-01-17T02:34:18.864Z,0.60
2018-01-17T02:36:54.122Z,1.10
2018-01-17T02:39:22.156Z,0.50
2018-01-17T02:41:50.080Z,0.90
2018-01-17T02:44:17.979Z,0.50
2018-01-17T02:46:45.922Z,1.62
2018-01-17T02:49:13.836Z,1.17
2018-01-17T02:51:41.875Z,0.93
2018-01-17T02:54:09.812Z,1.45
2018-01-17T02:56:37.905Z,1.02
2018-01-17T02:59:05.822Z,0.57
2018-01-17T03:01:33.754Z,1.10
2018-01-17T03:04:01.659Z,0.85
2018-01-17T03:06:30.449Z,0.40
2018-01-17T03:08:58.338Z,2.05
2018-01-17T03:11:26.304Z,0.70
2018-01-17T03:13:54.198Z,0.88
2018-01-17T03:16:22.153Z,0.60
2018-01-17T03:18:50.030Z,0.85
2018-01-17T03:21:17.971Z,1.75
2018-01-17T03:23:45.911Z,1.58
2018-01-17T03:26:13.846Z,0.60
2018-01-17T03:28:41.822Z,1.30
2018-01-17T03:31:09.777Z,0.82
2018-01-17T03:33:37.709Z,1.95
2018-01-17T03:36:05.793Z,0.68
2018-01-17T03:38:33.755Z,2.87
2018-01-17T03:41:01.695Z,1.05
2018-01-17T03:43:29.603Z,1.98
2018-01-17T03:45:57.534Z,3.28
2018-01-17T03:48:25.475Z,2.08
2018-01-17T03:50:53.366Z,7.10
2018-01-17T03:53:22.142Z,1.77
2018-01-17T03:55:50.048Z,2.17
2018-01-17T03:58:18.113Z,1.70
2018-01-17T04:00:46.023Z,10.23
2018-01-17T04:03:13.977Z,3.17
2018-01-17T04:05:41.863Z,1.50
2018-01-17T04:08:09.799Z,3.05
2018-01-17T04:10:37.749Z,1.30
2018-01-17T04:13:05.708Z,2.53
2018-01-17T04:15:34.433Z,5.87
2018-01-17T04:18:02.410Z,3.53
2018-01-17T04:20:30.356Z,4.32
2018-01-17T04:22:58.297Z,2.55
2018-01-17T04:25:26.206Z,3.83
2018-01-17T04:27:58.067Z,5.00
2018-01-17T04:30:25.969Z,12.02
2018-01-17T04:32:53.901Z,1.90
2018-01-17T04:35:21.797Z,5.37
2018-01-17T04:37:49.789Z,2.85
2018-01-17T04:40:17.677Z,2.45
2018-01-17T04:42:45.610Z,2.80
2018-01-17T04:45:13.483Z,1.55
2018-01-17T04:47:41.413Z,3.33
2018-01-17T04:50:09.325Z,1.40
2018-01-17T04:52:37.247Z,4.87
2018-01-17T04:55:05.182Z,4.30
2018-01-17T04:57:37.035Z,6.85
2018-01-17T05:00:05.041Z,4.85
2018-01-17T05:02:32.959Z,2.67
2018-01-17T05:05:00.901Z,2.47
2018-01-17T05:07:28.845Z,3.17
2018-01-17T05:09:56.822Z,9.73
2018-01-17T05:12:24.714Z,3.37
2018-01-17T05:14:52.707Z,3.83
2018-01-17T05:17:20.656Z,4.75
2018-01-17T05:19:48.578Z,4.20
2018-01-17T05:22:16.511Z,3.17
2018-01-17T05:24:44.493Z,3.35
2018-01-17T05:27:15.759Z,1.83
2018-01-17T05:29:44.492Z,2.45
2018-01-17T05:32:12.349Z,3.67
2018-01-17T05:34:40.298Z,3.10
2018-01-17T05:37:08.205Z,6.18
2018-01-17T05:39:36.176Z,3.00
2018-01-17T05:42:04.099Z,3.60
2018-01-17T05:44:36.613Z,5.12
2018-01-17T05:47:07.386Z,4.07
2018-01-17T05:49:38.310Z,1.77
2018-01-17T05:52:11.700Z,4.37
2018-01-17T05:54:42.973Z,1.62
2018-01-17T05:57:13.585Z,0.68
2018-01-17T05:59:43.900Z,0.60
2018-01-17T06:02:14.522Z,0.70
2018-01-17T06:04:42.565Z,1.08
2018-01-17T06:07:10.451Z,0.50
2018-01-17T06:09:41.765Z,0.60
2018-01-17T06:12:13.791Z,0.98
2018-01-17T06:14:45.164Z,0.50
2018-01-17T06:17:16.168Z,0.40
2018-01-17T06:19:49.623Z,0.37
2018-01-17T06:22:22.658Z,1.45
2018-01-17T06:24:55.211Z,0.85
2018-01-17T06:27:25.491Z,0.50
2018-01-17T06:29:57.645Z,0.52
2018-01-17T06:32:29.674Z,0.98
2018-01-17T06:35:02.397Z,0.50
2018-01-17T06:37:30.533Z,0.70
2018-01-17T06:39:58.394Z,0.50
2018-01-17T06:42:30.423Z,0.50
2018-01-17T06:45:01.954Z,1.42
2018-01-17T06:47:34.495Z,0.90
2018-01-17T06:50:06.981Z,1.83
2018-01-17T06:52:39.620Z,2.33
2018-01-17T06:55:11.892Z,3.95
2018-01-17T06:57:40.008Z,1.87
2018-01-17T07:00:07.918Z,1.67
2018-01-17T07:02:35.836Z,5.00
2018-01-17T07:05:03.744Z,1.42
2018-01-17T07:07:31.783Z,2.10
2018-01-17T07:09:59.704Z,4.68
2018-01-17T07:12:27.633Z,3.15
2018-01-17T07:14:55.744Z,3.95
2018-01-17T07:17:24.028Z,4.32
2018-01-17T07:19:52.299Z,4.45
2018-01-17T07:22:21.192Z,4.50
2018-01-17T07:24:49.077Z,2.50
2018-01-17T07:27:16.991Z,5.18
2018-01-17T07:29:44.864Z,3.80
2018-01-17T07:32:12.791Z,3.22
2018-01-17T07:34:41.436Z,4.45
2018-01-17T07:37:09.558Z,4.57
2018-01-17T07:39:38.212Z,5.35
2018-01-17T07:42:06.128Z,4.32
2018-01-17T07:44:34.009Z,5.50
2018-01-17T07:47:01.935Z,5.95
2018-01-17T07:49:29.885Z,4.82
2018-01-17T07:51:57.780Z,3.28
2018-01-17T07:54:25.745Z,2.10
2018-01-17T07:56:53.611Z,3.17
2018-01-17T07:59:21.607Z,1.50
2018-01-17T08:01:49.503Z,1.30
2018-01-17T08:04:17.465Z,4.43
2018-01-17T08:06:45.475Z,1.52
2018-01-17T08:09:13.379Z,2.42
2018-01-17T08:11:41.252Z,1.40
2018-01-17T08:14:09.183Z,1.20
2018-01-17T08:16:37.067Z,0.93
2018-01-17T08:19:05.759Z,1.12
2018-01-17T08:21:33.630Z,0.70
2018-01-17T08:24:02.316Z,0.75
2018-01-17T08:26:30.975Z,2.83
2018-01-17T08:28:58.896Z,0.90
2018-01-17T08:31:26.782Z,0.65
2018-01-17T08:33:54.736Z,2.80
2018-01-17T08:36:29.655Z,3.60
2018-01-17T08:38:57.738Z,0.85
2018-01-17T08:41:25.627Z,4.85
2018-01-17T08:43:53.547Z,4.10
2018-01-17T08:46:21.411Z,3.30
2018-01-17T08:48:49.332Z,2.15
2018-01-17T08:51:17.262Z,1.10
2018-01-17T08:53:45.127Z,2.15
2018-01-17T08:56:13.056Z,2.30
2018-01-17T08:58:40.933Z,3.80
2018-01-17T09:01:08.914Z,2.95
2018-01-17T09:03:36.781Z,6.30
2018-01-17T09:06:04.807Z,2.65
2018-01-17T09:08:32.984Z,3.28
2018-01-17T09:11:00.900Z,5.15
2018-01-17T09:13:28.791Z,1.92
2018-01-17T09:15:56.716Z,2.40
2018-01-17T09:18:24.587Z,2.50
2018-01-17T09:20:52.530Z,3.50
2018-01-17T09:23:20.396Z,5.93
2018-01-17T09:25:48.349Z,4.50
2018-01-17T09:28:20.810Z,2.28
2018-01-17T09:30:49.498Z,3.15
2018-01-17T09:33:18.140Z,7.55
2018-01-17T09:35:46.102Z,4.45
2018-01-17T09:38:13.980Z,10.88
2018-01-17T09:40:41.893Z,7.35
2018-01-17T09:43:09.799Z,3.28
2018-01-17T09:45:37.713Z,4.32
2018-01-17T09:48:05.583Z,5.60
2018-01-17T09:50:33.496Z,8.50
2018-01-17T09:53:02.608Z,2.95
2018-01-17T09:55:30.505Z,2.05
2018-01-17T09:57:58.612Z,5.35
2018-01-17T10:00:27.271Z,2.62
2018-01-17T10:02:55.181Z,9.27
2018-01-17T10:05:23.147Z,7.00
2018-01-17T10:07:51.330Z,7.12
2018-01-17T10:10:19.210Z,3.67
2018-01-17T10:12:50.904Z,4.62
2018-01-17T10:15:19.124Z,4.60
2018-01-17T10:17:47.077Z,5.50
2018-01-17T10:20:14.975Z,8.13
2018-01-17T10:22:42.883Z,5.65
2018-01-17T10:25:10.729Z,4.22
2018-01-17T10:27:38.661Z,5.70
2018-01-17T10:30:06.567Z,4.87
2018-01-17T10:32:34.509Z,4.78
2018-01-17T10:35:02.393Z,6.18
2018-01-17T10:37:30.352Z,4.70
2018-01-17T10:39:58.314Z,5.32
2018-01-17T10:42:26.263Z,3.92
2018-01-17T10:44:54.270Z,5.32
2018-01-17T10:47:22.250Z,5.57
2018-01-17T10:49:50.230Z,4.32
2018-01-17T10:52:18.160Z,3.20
2018-01-17T10:54:46.079Z,4.45
2018-01-17T10:57:14.033Z,9.38
2018-01-17T10:59:41.900Z,4.90
2018-01-17T11:02:09.789Z,4.87
2018-01-17T11:04:37.871Z,5.90
2018-01-17T11:07:05.762Z,4.40
2018-01-17T11:09:34.632Z,10.25
2018-01-17T11:12:02.526Z,20.25
2018-01-17T11:14:31.252Z,6.87
2018-01-17T11:17:01.933Z,5.75
2018-01-17T11:19:30.080Z,3.95
2018-01-17T11:21:57.990Z,4.87
2018-01-17T11:24:25.987Z,7.35
2018-01-17T11:26:53.862Z,5.20
2018-01-17T11:29:21.793Z,6.07
2018-01-17T11:31:50.469Z,2.80
2018-01-17T11:34:18.422Z,6.50
2018-01-17T11:36:48.453Z,4.32
2018-01-17T11:39:16.392Z,4.75
2018-01-17T11:41:44.278Z,5.87
2018-01-17T11:44:12.212Z,4.10
2018-01-17T11:46:40.092Z,4.50
2018-01-17T11:49:08.080Z,8.25
2018-01-17T11:51:35.967Z,4.55
2018-01-17T11:54:03.940Z,5.60
2018-01-17T11:56:31.841Z,6.55
2018-01-17T11:58:59.779Z,3.42
2018-01-17T12:01:27.673Z,5.97
2018-01-17T12:03:55.670Z,10.27
2018-01-17T12:06:23.723Z,12.45
2018-01-17T12:08:51.736Z,4.97
2018-01-17T12:11:19.615Z,6.95
2018-01-17T12:13:47.487Z,3.65
2018-01-17T12:16:15.416Z,5.05
2018-01-17T12:18:43.286Z,2.62
2018-01-17T12:21:11.256Z,6.50
2018-01-17T12:23:39.133Z,2.62
2018-01-17T12:26:07.068Z,9.18
2018-01-17T12:28:35.529Z,7.53
2018-01-17T12:31:03.590Z,3.90
2018-01-17T12:33:31.489Z,3.85
2018-01-17T12:35:59.458Z,5.03
2018-01-17T12:38:27.334Z,7.22
2018-01-17T12:40:55.252Z,3.80
2018-01-17T12:43:23.147Z,5.30
2018-01-17T12:45:51.086Z,3.50
2018-01-17T12:48:18.984Z,6.40
2018-01-17T12:50:46.906Z,5.32
2018-01-17T12:53:14.816Z,6.55
2018-01-17T12:55:42.766Z,5.80
2018-01-17T12:58:11.032Z,6.65
2018-01-17T13:00:38.936Z,3.40
2018-01-17T13:03:06.809Z,7.12
2018-01-17T13:05:34.740Z,5.57
2018-01-17T13:08:02.622Z,9.40
2018-01-17T13:10:30.548Z,10.10
2018-01-17T13:12:58.421Z,6.95
2018-01-17T13:15:26.307Z,5.05
2018-01-17T13:17:54.236Z,7.62
2018-01-17T13:20:22.108Z,6.03
2018-01-17T13:22:50.124Z,6.68
2018-01-17T13:25:18.001Z,3.83
2018-01-17T13:27:47.969Z,5.70
2018-01-17T13:30:15.851Z,7.37
2018-01-17T13:32:43.770Z,12.00
2018-01-17T13:35:11.675Z,6.43
2018-01-17T13:37:39.629Z,4.72
2018-01-17T13:40:08.279Z,4.90
2018-01-17T13:42:36.223Z,6.30
2018-01-17T13:45:04.143Z,13.40
2018-01-17T13:47:32.076Z,6.93
2018-01-17T13:49:59.954Z,5.28
2018-01-17T13:52:27.868Z,5.97
2018-01-17T13:54:56.505Z,10.63
2018-01-17T13:57:24.524Z,5.00
2018-01-17T13:59:53.168Z,5.53
2018-01-17T14:02:21.103Z,8.65
2018-01-17T14:04:48.956Z,9.15
2018-01-17T14:07:16.872Z,12.57
2018-01-17T14:09:44.771Z,11.38
2018-01-17T14:12:12.690Z,9.95
2018-01-17T14:14:40.590Z,7.75
2018-01-17T14:17:08.537Z,9.98
2018-01-17T14:19:36.421Z,8.82
2018-01-17T14:22:04.310Z,15.00
2018-01-17T14:24:32.336Z,4.45
2018-01-17T14:27:01.410Z,5.40
2018-01-17T14:29:29.396Z,6.43
2018-01-17T14:31:57.293Z,15.05
2018-01-17T14:34:25.264Z,7.45
2018-01-17T14:36:53.204Z,7.18
2018-01-17T14:39:21.202Z,13.30
2018-01-17T14:41:49.148Z,9.13
2018-01-17T14:44:17.122Z,9.18
2018-01-17T14:46:45.233Z,6.57
2018-01-17T14:49:13.207Z,9.27
2018-01-17T14:51:41.125Z,6.72
2018-01-17T14:54:09.098Z,6.60
2018-01-17T14:56:37.008Z,7.62
2018-01-17T14:59:04.936Z,4.53
2018-01-17T15:01:32.878Z,4.07
2018-01-17T15:04:00.860Z,4.10
2018-01-17T15:06:28.884Z,6.25
2018-01-17T15:08:56.828Z,4.40
2018-01-17T15:11:24.891Z,13.55
2018-01-17T15:13:52.893Z,6.45
2018-01-17T15:16:20.801Z,9.57
2018-01-17T15:18:48.771Z,8.60
2018-01-17T15:21:17.545Z,7.60
2018-01-17T15:23:45.590Z,2.58
2018-01-17T15:26:13.659Z,10.82
2018-01-17T15:28:41.566Z,10.52
2018-01-17T15:31:09.535Z,8.88
2018-01-17T15:33:37.458Z,5.32
2018-01-17T15:36:05.461Z,2.40
2018-01-17T15:38:33.378Z,4.20
2018-01-17T15:41:01.345Z,3.70
2018-01-17T15:43:29.339Z,3.37
2018-01-17T15:45:57.329Z,6.87
2018-01-17T15:48:25.307Z,2.85
2018-01-17T15:50:54.067Z,9.48
2018-01-17T15:53:22.166Z,9.10
2018-01-17T15:55:50.153Z,5.30
2018-01-17T15:58:19.845Z,13.57
2018-01-17T16:03:26.150Z,9.07
2018-01-17T16:11:09.438Z,13.50
2018-01-17T16:13:37.372Z,11.57
2018-01-17T16:16:05.401Z,10.65
2018-01-17T16:18:33.366Z,12.52
2018-01-17T16:21:01.318Z,8.45
2018-01-17T16:26:10.956Z,12.15
2018-01-17T16:28:49.875Z,14.55
2018-01-17T16:31:18.051Z,10.30
2018-01-17T16:33:46.746Z,17.55
2018-01-17T16:36:14.715Z,7.55
2018-01-17T16:38:43.535Z,11.70
2018-01-17T16:41:11.752Z,12.25
2018-01-17T16:43:39.772Z,7.80
2018-01-17T16:49:08.485Z,9.82
2018-01-17T16:54:42.018Z,7.85
2018-01-17T16:57:16.643Z,7.25
2018-01-17T16:59:45.416Z,5.90
2018-01-17T17:02:14.729Z,11.68
2018-01-17T17:04:46.742Z,9.25
2018-01-17T17:07:14.770Z,8.32
2018-01-17T17:09:48.906Z,6.70
2018-01-17T17:15:18.439Z,10.90
2018-01-17T17:17:48.537Z,11.70
2018-01-17T17:20:16.567Z,9.18
2018-01-17T17:22:45.294Z,12.88
2018-01-17T17:25:13.800Z,5.28
2018-01-17T17:27:42.213Z,5.28
2018-01-17T17:30:13.560Z,4.30
2018-01-17T17:32:42.284Z,7.95
2018-01-17T17:35:10.240Z,8.40
2018-01-17T17:37:38.929Z,5.07
2018-01-17T17:40:07.629Z,10.52
2018-01-17T17:42:35.619Z,18.87
2018-01-17T17:45:03.663Z,16.02
2018-01-17T17:47:31.873Z,9.88
2018-01-17T17:50:03.127Z,7.12
2018-01-17T17:52:31.104Z,11.38
2018-01-17T17:54:59.036Z,6.32
2018-01-17T17:57:27.041Z,14.05
2018-01-17T17:59:55.086Z,11.60
2018-01-17T18:02:22.982Z,7.78
2018-01-17T18:04:50.909Z,6.65
2018-01-17T18:07:18.911Z,11.88
2018-01-17T18:09:46.832Z,11.52
2018-01-17T18:12:16.471Z,7.93
2018-01-17T18:14:44.425Z,12.85
2018-01-17T18:17:12.399Z,12.77
2018-01-17T18:19:41.563Z,10.00
2018-01-17T18:22:09.649Z,10.57
2018-01-17T18:24:38.384Z,9.73
2018-01-17T18:27:06.363Z,14.13
2018-01-17T18:29:34.359Z,5.10
2018-01-17T18:32:02.308Z,10.27
2018-01-17T18:34:30.277Z,5.43
2018-01-17T18:36:58.252Z,23.38
2018-01-17T18:39:26.200Z,10.18
2018-01-17T18:41:54.242Z,6.30
2018-01-17T18:44:22.169Z,6.90
2018-01-17T18:46:50.066Z,17.42
2018-01-17T18:49:18.052Z,11.15
2018-01-17T18:51:45.983Z,7.68
2018-01-17T18:54:13.935Z,13.25
2018-01-17T18:56:41.889Z,7.07
2018-01-17T18:59:09.842Z,7.15
2018-01-17T19:01:37.878Z,6.82
2018-01-17T19:04:06.637Z,11.63
2018-01-17T19:06:38.591Z,5.65
2018-01-17T19:09:06.484Z,5.03
2018-01-17T19:11:34.465Z,6.80
2018-01-17T19:14:02.380Z,7.90
2018-01-17T19:16:30.353Z,5.97
2018-01-17T19:18:58.269Z,7.47
2018-01-17T19:21:26.241Z,9.80
2018-01-17T19:23:54.148Z,8.80
2018-01-17T19:26:22.128Z,7.03
2018-01-17T19:28:50.053Z,8.88
2018-01-17T19:31:18.033Z,7.07
2018-01-17T19:33:45.931Z,9.18
2018-01-17T19:36:14.124Z,6.10
2018-01-17T19:38:42.035Z,7.10
2018-01-17T19:41:10.033Z,11.68
2018-01-17T19:43:37.933Z,10.02
2018-01-17T19:46:06.017Z,5.57
2018-01-17T19:48:35.366Z,5.40
2018-01-17T19:51:04.122Z,8.27
2018-01-17T19:53:32.309Z,7.18
2018-01-17T19:56:00.251Z,5.62
2018-01-17T19:58:28.254Z,6.35
2018-01-17T20:00:56.276Z,7.07
2018-01-17T20:03:24.169Z,9.43
2018-01-17T20:05:52.229Z,6.90
2018-01-17T20:08:20.159Z,9.57
2018-01-17T20:10:48.153Z,9.63
2018-01-17T20:13:16.067Z,8.15
2018-01-17T20:15:44.002Z,14.70
2018-01-17T20:18:12.026Z,8.70
2018-01-17T20:20:39.930Z,6.20
2018-01-17T20:23:07.859Z,7.68
2018-01-17T20:25:35.794Z,13.35
2018-01-17T20:28:04.913Z,7.53
2018-01-17T20:30:32.854Z,9.07
2018-01-17T20:33:00.825Z,7.72
2018-01-17T20:35:28.733Z,5.43
2018-01-17T20:37:56.791Z,10.77
2018-01-17T20:40:24.697Z,7.47
2018-01-17T20:42:53.325Z,12.18
2018-01-17T20:45:21.233Z,13.07
2018-01-17T20:47:49.223Z,5.93
2018-01-17T20:50:17.125Z,12.05
2018-01-17T20:52:45.141Z,9.32
2018-01-17T20:55:13.076Z,10.32
2018-01-17T20:57:41.264Z,12.52
2018-01-17T21:00:09.154Z,6.80
2018-01-17T21:02:37.140Z,8.23
2018-01-17T21:05:05.048Z,11.30
2018-01-17T21:07:33.013Z,9.85
2018-01-17T21:10:00.935Z,12.02
2018-01-17T21:12:28.849Z,12.73
2018-01-17T21:14:56.885Z,14.93
2018-01-17T21:17:24.829Z,14.68
2018-01-17T21:19:52.801Z,9.05
2018-01-17T21:22:20.742Z,6.68
2018-01-17T21:24:48.693Z,15.10
2018-01-17T21:27:16.711Z,11.98
2018-01-17T21:29:44.683Z,21.23
2018-01-17T21:32:12.626Z,13.52
2018-01-17T21:34:41.072Z,13.95
2018-01-17T21:37:09.060Z,17.73
2018-01-17T21:39:37.033Z,7.60
2018-01-17T21:42:05.012Z,9.13
2018-01-17T21:44:38.639Z,14.00
2018-01-17T21:47:06.538Z,16.23
2018-01-17T21:49:34.536Z,6.37
2018-01-17T21:52:02.502Z,17.25
2018-01-17T21:54:30.462Z,14.13
2018-01-17T21:56:59.144Z,9.75
2018-01-17T21:59:27.869Z,9.95
2018-01-17T22:01:55.774Z,12.02
2018-01-17T22:04:23.738Z,19.40
2018-01-17T22:06:51.651Z,10.43
2018-01-17T22:09:19.678Z,12.68
2018-01-17T22:11:47.629Z,9.77
2018-01-17T22:14:15.692Z,11.32
2018-01-17T22:16:43.595Z,15.68
2018-01-17T22:19:11.532Z,17.48
2018-01-17T22:21:39.447Z,7.45
2018-01-17T22:24:07.351Z,12.95
2018-01-17T22:26:35.453Z,10.57
2018-01-17T22:29:03.352Z,11.98
2018-01-17T22:31:31.297Z,11.38
2018-01-17T22:33:59.205Z,13.20
2018-01-17T22:36:41.208Z,11.90
2018-01-17T22:39:09.886Z,11.90
2018-01-17T22:41:37.832Z,8.48
2018-01-17T22:44:05.715Z,11.50
2018-01-17T22:46:33.848Z,11.32
2018-01-17T22:49:01.739Z,12.23
2018-01-17T22:51:29.669Z,13.80
2018-01-17T22:53:57.570Z,8.85
2018-01-17T22:56:25.501Z,11.55
2018-01-17T22:58:53.586Z,12.02
2018-01-17T23:01:21.511Z,12.15
2018-01-17T23:03:49.404Z,10.07
2018-01-17T23:06:17.810Z,18.17
2018-01-17T23:08:45.857Z,8.80
2018-01-17T23:11:13.799Z,10.77
2018-01-17T23:13:41.692Z,12.48
2018-01-17T23:16:10.441Z,14.43
2018-01-17T23:18:38.397Z,10.23
2018-01-17T23:21:09.901Z,16.33
2018-01-17T23:23:38.824Z,15.20
2018-01-17T23:26:06.728Z,10.50
2018-01-17T23:28:34.741Z,16.08
2018-01-17T23:31:03.368Z,10.38
2018-01-17T23:33:31.358Z,12.55
2018-01-17T23:35:59.473Z,13.05
2018-01-17T23:38:27.459Z,15.07
2018-01-17T23:40:55.435Z,16.55
2018-01-17T23:43:23.375Z,11.15
2018-01-17T23:45:52.058Z,12.80
2018-01-17T23:48:20.014Z,6.47
2018-01-17T23:50:47.970Z,7.95
2018-01-17T23:53:15.930Z,11.18
2018-01-17T23:55:43.904Z,11.75
2018-01-17T23:58:11.864Z,16.48
